Adelaide, Washington
Current Conditions -  °F | °C
As of 5:53 PM on Sunday 21 Dec 2014 (Local Time) from KBFI Reporting Station
Overcast Overcast  
Wind Chill: 54°   Ceiling: 12000
Heat Index: 54°   Visibility: 10mi
Dew Point: 44°   Wind: 6mph
Humidity: 69%   Direction: 150°SSE
Pressure: 30.06"   Gusts: NA
Location:  47.6833°N, 122.123°W
Report Text: KBFI 220153Z 15005KT 10SM FEW026 OVC120 12/07 A3006 RMK AO2 SLP178 T01220067
Loading
Personal Weather Stations






























Interactive Weather Map New forecast layout! Learn more

10-Day Weather Forecast

Advertisements
Track Severe Weather on mobile